sensor_id;sensor_type;location;lat;lon;timestamp;temperature;humidity
68433;DHT22;55412;51.350;17.056;2023-07-20T00:02:16;20.80;56.50
68433;DHT22;55412;51.350;17.056;2023-07-20T00:04:43;20.90;56.40
68433;DHT22;55412;51.350;17.056;2023-07-20T00:07:09;20.80;57.80
68433;DHT22;55412;51.350;17.056;2023-07-20T00:09:35;20.70;58.10
68433;DHT22;55412;51.350;17.056;2023-07-20T00:12:01;20.70;58.50
68433;DHT22;55412;51.350;17.056;2023-07-20T00:14:28;20.50;58.20
68433;DHT22;55412;51.350;17.056;2023-07-20T00:16:55;20.30;59.80
68433;DHT22;55412;51.350;17.056;2023-07-20T00:19:26;20.30;60.60
68433;DHT22;55412;51.350;17.056;2023-07-20T00:21:54;20.10;64.50
68433;DHT22;55412;51.350;17.056;2023-07-20T00:24:21;19.90;65.30
68433;DHT22;55412;51.350;17.056;2023-07-20T00:26:47;19.80;64.80
68433;DHT22;55412;51.350;17.056;2023-07-20T00:29:13;19.70;61.40
68433;DHT22;55412;51.350;17.056;2023-07-20T00:31:39;19.90;60.70
68433;DHT22;55412;51.350;17.056;2023-07-20T00:34:05;20.00;59.90
68433;DHT22;55412;51.350;17.056;2023-07-20T00:36:32;20.20;59.50
68433;DHT22;55412;51.350;17.056;2023-07-20T00:38:58;20.30;59.60
68433;DHT22;55412;51.350;17.056;2023-07-20T00:41:24;20.30;59.90
68433;DHT22;55412;51.350;17.056;2023-07-20T00:43:55;20.40;59.30
68433;DHT22;55412;51.350;17.056;2023-07-20T00:46:23;20.40;59.40
68433;DHT22;55412;51.350;17.056;2023-07-20T00:48:52;20.40;59.50
68433;DHT22;55412;51.350;17.056;2023-07-20T00:51:21;20.40;59.40
68433;DHT22;55412;51.350;17.056;2023-07-20T00:53:47;20.40;59.40
68433;DHT22;55412;51.350;17.056;2023-07-20T00:56:13;20.40;59.40
68433;DHT22;55412;51.350;17.056;2023-07-20T00:58:41;20.40;59.80
68433;DHT22;55412;51.350;17.056;2023-07-20T01:01:07;20.40;59.60
68433;DHT22;55412;51.350;17.056;2023-07-20T01:03:33;20.40;59.50
68433;DHT22;55412;51.350;17.056;2023-07-20T01:06:28;20.40;60.20
68433;DHT22;55412;51.350;17.056;2023-07-20T01:09:17;20.30;59.90
68433;DHT22;55412;51.350;17.056;2023-07-20T01:12:27;20.30;59.90
68433;DHT22;55412;51.350;17.056;2023-07-20T01:14:59;20.30;59.90
68433;DHT22;55412;51.350;17.056;2023-07-20T01:17:26;20.20;60.00
68433;DHT22;55412;51.350;17.056;2023-07-20T01:19:55;20.20;60.50
68433;DHT22;55412;51.350;17.056;2023-07-20T01:26:02;20.20;60.40
68433;DHT22;55412;51.350;17.056;2023-07-20T01:31:56;20.10;60.60
68433;DHT22;55412;51.350;17.056;2023-07-20T01:34:24;20.10;60.30
68433;DHT22;55412;51.350;17.056;2023-07-20T01:36:52;20.10;60.40
68433;DHT22;55412;51.350;17.056;2023-07-20T01:39:21;20.10;60.40
68433;DHT22;55412;51.350;17.056;2023-07-20T01:41:47;20.00;61.50
68433;DHT22;55412;51.350;17.056;2023-07-20T01:44:14;19.90;64.70
68433;DHT22;55412;51.350;17.056;2023-07-20T01:46:40;19.60;66.60
68433;DHT22;55412;51.350;17.056;2023-07-20T01:49:06;19.50;65.10
68433;DHT22;55412;51.350;17.056;2023-07-20T01:51:32;19.40;62.10
68433;DHT22;55412;51.350;17.056;2023-07-20T01:53:58;19.50;61.20
68433;DHT22;55412;51.350;17.056;2023-07-20T01:56:25;19.70;61.00
68433;DHT22;55412;51.350;17.056;2023-07-20T02:02:32;19.80;61.30
68433;DHT22;55412;51.350;17.056;2023-07-20T02:04:59;19.80;60.60
68433;DHT22;55412;51.350;17.056;2023-07-20T02:07:25;19.80;61.00
68433;DHT22;55412;51.350;17.056;2023-07-20T02:09:52;19.90;60.90
68433;DHT22;55412;51.350;17.056;2023-07-20T02:12:18;19.90;61.40
68433;DHT22;55412;51.350;17.056;2023-07-20T02:14:44;19.90;61.70
68433;DHT22;55412;51.350;17.056;2023-07-20T02:17:11;19.80;61.10
68433;DHT22;55412;51.350;17.056;2023-07-20T02:19:37;19.80;61.30
68433;DHT22;55412;51.350;17.056;2023-07-20T02:22:04;19.80;61.90
68433;DHT22;55412;51.350;17.056;2023-07-20T02:24:31;19.80;62.20
68433;DHT22;55412;51.350;17.056;2023-07-20T02:26:57;19.80;62.60
68433;DHT22;55412;51.350;17.056;2023-07-20T02:29:24;19.70;61.80
68433;DHT22;55412;51.350;17.056;2023-07-20T02:31:50;19.70;61.70
68433;DHT22;55412;51.350;17.056;2023-07-20T02:34:17;19.70;61.60
68433;DHT22;55412;51.350;17.056;2023-07-20T02:36:43;19.70;62.40
68433;DHT22;55412;51.350;17.056;2023-07-20T02:39:12;19.80;62.30
68433;DHT22;55412;51.350;17.056;2023-07-20T02:41:38;19.80;62.40
68433;DHT22;55412;51.350;17.056;2023-07-20T02:44:09;19.70;62.40
68433;DHT22;55412;51.350;17.056;2023-07-20T02:46:35;19.70;62.90
68433;DHT22;55412;51.350;17.056;2023-07-20T02:49:01;19.70;62.70
68433;DHT22;55412;51.350;17.056;2023-07-20T02:51:27;19.70;62.70
68433;DHT22;55412;51.350;17.056;2023-07-20T02:53:54;19.60;64.30
68433;DHT22;55412;51.350;17.056;2023-07-20T02:56:23;19.40;64.50
68433;DHT22;55412;51.350;17.056;2023-07-20T02:58:50;19.40;63.30
68433;DHT22;55412;51.350;17.056;2023-07-20T03:01:16;19.30;64.30
68433;DHT22;55412;51.350;17.056;2023-07-20T03:03:42;19.00;68.70
68433;DHT22;55412;51.350;17.056;2023-07-20T03:06:16;18.70;68.40
68433;DHT22;55412;51.350;17.056;2023-07-20T03:08:42;18.60;69.80
68433;DHT22;55412;51.350;17.056;2023-07-20T03:11:11;18.60;69.20
68433;DHT22;55412;51.350;17.056;2023-07-20T03:13:37;18.50;71.70
68433;DHT22;55412;51.350;17.056;2023-07-20T03:16:03;18.30;69.60
68433;DHT22;55412;51.350;17.056;2023-07-20T03:18:29;18.50;68.30
68433;DHT22;55412;51.350;17.056;2023-07-20T03:20:55;18.50;71.20
68433;DHT22;55412;51.350;17.056;2023-07-20T03:23:22;18.30;72.00
68433;DHT22;55412;51.350;17.056;2023-07-20T03:25:52;18.20;73.20
68433;DHT22;55412;51.350;17.056;2023-07-20T03:28:20;18.10;70.40
68433;DHT22;55412;51.350;17.056;2023-07-20T03:30:53;18.30;68.50
68433;DHT22;55412;51.350;17.056;2023-07-20T03:33:25;18.40;72.00
68433;DHT22;55412;51.350;17.056;2023-07-20T03:35:53;18.20;73.60
68433;DHT22;55412;51.350;17.056;2023-07-20T03:38:20;18.10;73.30
68433;DHT22;55412;51.350;17.056;2023-07-20T03:40:57;18.10;73.90
68433;DHT22;55412;51.350;17.056;2023-07-20T03:43:26;18.00;74.80
68433;DHT22;55412;51.350;17.056;2023-07-20T03:45:53;18.00;75.00
68433;DHT22;55412;51.350;17.056;2023-07-20T03:48:24;17.90;75.00
68433;DHT22;55412;51.350;17.056;2023-07-20T03:51:26;17.90;75.50
68433;DHT22;55412;51.350;17.056;2023-07-20T03:53:52;18.00;69.00
68433;DHT22;55412;51.350;17.056;2023-07-20T03:56:18;18.40;67.40
68433;DHT22;55412;51.350;17.056;2023-07-20T03:58:44;18.60;68.40
68433;DHT22;55412;51.350;17.056;2023-07-20T04:01:11;18.70;69.70
68433;DHT22;55412;51.350;17.056;2023-07-20T04:03:38;18.70;67.10
68433;DHT22;55412;51.350;17.056;2023-07-20T04:06:05;18.80;65.00
68433;DHT22;55412;51.350;17.056;2023-07-20T04:08:31;18.90;64.70
68433;DHT22;55412;51.350;17.056;2023-07-20T04:10:58;19.00;64.40
68433;DHT22;55412;51.350;17.056;2023-07-20T04:13:24;19.00;65.90
68433;DHT22;55412;51.350;17.056;2023-07-20T04:15:53;19.00;66.90
68433;DHT22;55412;51.350;17.056;2023-07-20T04:18:21;19.00;67.10
68433;DHT22;55412;51.350;17.056;2023-07-20T04:20:47;19.10;65.90
68433;DHT22;55412;51.350;17.056;2023-07-20T04:23:13;19.10;65.90
68433;DHT22;55412;51.350;17.056;2023-07-20T04:25:40;19.20;65.20
68433;DHT22;55412;51.350;17.056;2023-07-20T04:28:10;19.20;65.80
68433;DHT22;55412;51.350;17.056;2023-07-20T04:30:36;19.30;64.90
68433;DHT22;55412;51.350;17.056;2023-07-20T04:33:04;19.30;64.20
68433;DHT22;55412;51.350;17.056;2023-07-20T04:35:46;19.40;64.40
68433;DHT22;55412;51.350;17.056;2023-07-20T04:38:14;19.40;64.10
68433;DHT22;55412;51.350;17.056;2023-07-20T04:40:44;19.50;64.00
68433;DHT22;55412;51.350;17.056;2023-07-20T04:43:21;19.50;63.90
68433;DHT22;55412;51.350;17.056;2023-07-20T04:45:54;19.60;64.00
68433;DHT22;55412;51.350;17.056;2023-07-20T04:48:20;19.60;63.90
68433;DHT22;55412;51.350;17.056;2023-07-20T04:50:51;19.60;64.00
68433;DHT22;55412;51.350;17.056;2023-07-20T04:53:17;19.70;63.90
68433;DHT22;55412;51.350;17.056;2023-07-20T04:55:50;19.70;64.50
68433;DHT22;55412;51.350;17.056;2023-07-20T04:58:18;19.70;63.90
68433;DHT22;55412;51.350;17.056;2023-07-20T05:00:50;19.70;64.30
68433;DHT22;55412;51.350;17.056;2023-07-20T05:03:17;19.70;64.40
68433;DHT22;55412;51.350;17.056;2023-07-20T05:05:43;19.80;64.20
68433;DHT22;55412;51.350;17.056;2023-07-20T05:08:10;19.80;64.50
68433;DHT22;55412;51.350;17.056;2023-07-20T05:10:36;19.90;63.90
68433;DHT22;55412;51.350;17.056;2023-07-20T05:13:02;20.10;63.80
68433;DHT22;55412;51.350;17.056;2023-07-20T05:15:28;20.20;65.30
68433;DHT22;55412;51.350;17.056;2023-07-20T05:17:55;20.10;63.80
68433;DHT22;55412;51.350;17.056;2023-07-20T05:20:21;20.10;63.80
68433;DHT22;55412;51.350;17.056;2023-07-20T05:22:48;20.10;67.30
68433;DHT22;55412;51.350;17.056;2023-07-20T05:25:14;20.00;64.20
68433;DHT22;55412;51.350;17.056;2023-07-20T05:27:44;20.10;64.10
68433;DHT22;55412;51.350;17.056;2023-07-20T05:30:12;20.20;66.60
68433;DHT22;55412;51.350;17.056;2023-07-20T05:32:38;20.30;64.10
68433;DHT22;55412;51.350;17.056;2023-07-20T05:35:04;20.30;66.30
68433;DHT22;55412;51.350;17.056;2023-07-20T05:37:34;20.20;65.20
68433;DHT22;55412;51.350;17.056;2023-07-20T05:40:05;20.10;67.00
68433;DHT22;55412;51.350;17.056;2023-07-20T05:42:33;20.00;66.20
68433;DHT22;55412;51.350;17.056;2023-07-20T05:45:00;19.90;66.20
68433;DHT22;55412;51.350;17.056;2023-07-20T05:47:26;19.90;67.30
68433;DHT22;55412;51.350;17.056;2023-07-20T05:49:52;19.80;65.90
68433;DHT22;55412;51.350;17.056;2023-07-20T05:52:18;19.80;65.70
68433;DHT22;55412;51.350;17.056;2023-07-20T05:54:45;19.80;65.40
68433;DHT22;55412;51.350;17.056;2023-07-20T05:57:11;19.80;65.60
68433;DHT22;55412;51.350;17.056;2023-07-20T05:59:37;19.90;68.10
68433;DHT22;55412;51.350;17.056;2023-07-20T06:02:04;19.90;65.60
68433;DHT22;55412;51.350;17.056;2023-07-20T06:04:30;20.00;65.60
68433;DHT22;55412;51.350;17.056;2023-07-20T06:06:56;20.00;65.30
68433;DHT22;55412;51.350;17.056;2023-07-20T06:09:23;20.10;65.10
68433;DHT22;55412;51.350;17.056;2023-07-20T06:11:49;20.10;65.00
68433;DHT22;55412;51.350;17.056;2023-07-20T06:14:15;20.20;65.20
68433;DHT22;55412;51.350;17.056;2023-07-20T06:16:41;20.20;65.40
68433;DHT22;55412;51.350;17.056;2023-07-20T06:19:08;20.20;65.40
68433;DHT22;55412;51.350;17.056;2023-07-20T06:21:36;20.20;65.50
68433;DHT22;55412;51.350;17.056;2023-07-20T06:24:02;20.30;65.50
68433;DHT22;55412;51.350;17.056;2023-07-20T06:26:29;20.40;65.80
68433;DHT22;55412;51.350;17.056;2023-07-20T06:28:56;20.50;66.30
68433;DHT22;55412;51.350;17.056;2023-07-20T06:31:22;20.50;64.60
68433;DHT22;55412;51.350;17.056;2023-07-20T06:33:49;20.50;65.30
68433;DHT22;55412;51.350;17.056;2023-07-20T06:36:18;20.40;66.40
68433;DHT22;55412;51.350;17.056;2023-07-20T06:38:44;20.40;65.80
68433;DHT22;55412;51.350;17.056;2023-07-20T06:41:10;20.30;65.30
68433;DHT22;55412;51.350;17.056;2023-07-20T06:43:36;20.30;65.20
68433;DHT22;55412;51.350;17.056;2023-07-20T06:46:03;20.30;65.40
68433;DHT22;55412;51.350;17.056;2023-07-20T06:48:29;20.20;65.00
68433;DHT22;55412;51.350;17.056;2023-07-20T06:50:55;20.30;65.30
68433;DHT22;55412;51.350;17.056;2023-07-20T06:53:21;20.30;65.60
68433;DHT22;55412;51.350;17.056;2023-07-20T06:55:48;20.70;64.40
68433;DHT22;55412;51.350;17.056;2023-07-20T06:58:14;21.00;63.20
68433;DHT22;55412;51.350;17.056;2023-07-20T07:00:40;21.10;65.90
68433;DHT22;55412;51.350;17.056;2023-07-20T07:03:06;21.20;65.40
68433;DHT22;55412;51.350;17.056;2023-07-20T07:05:36;21.10;64.70
68433;DHT22;55412;51.350;17.056;2023-07-20T07:08:04;21.10;64.50
68433;DHT22;55412;51.350;17.056;2023-07-20T07:10:31;21.10;63.50
68433;DHT22;55412;51.350;17.056;2023-07-20T07:12:57;21.10;63.20
68433;DHT22;55412;51.350;17.056;2023-07-20T07:15:23;21.10;63.00
68433;DHT22;55412;51.350;17.056;2023-07-20T07:17:49;21.10;63.10
68433;DHT22;55412;51.350;17.056;2023-07-20T07:20:16;21.30;62.90
68433;DHT22;55412;51.350;17.056;2023-07-20T07:22:42;21.90;61.60
68433;DHT22;55412;51.350;17.056;2023-07-20T07:25:10;22.60;63.20
68433;DHT22;55412;51.350;17.056;2023-07-20T07:27:36;23.20;60.60
68433;DHT22;55412;51.350;17.056;2023-07-20T07:30:03;23.50;58.80
68433;DHT22;55412;51.350;17.056;2023-07-20T07:32:29;23.60;57.50
68433;DHT22;55412;51.350;17.056;2023-07-20T07:34:56;23.70;57.00
68433;DHT22;55412;51.350;17.056;2023-07-20T07:37:24;24.00;58.50
68433;DHT22;55412;51.350;17.056;2023-07-20T07:39:50;24.10;55.70
68433;DHT22;55412;51.350;17.056;2023-07-20T07:42:17;24.00;56.10
68433;DHT22;55412;51.350;17.056;2023-07-20T07:44:44;23.90;56.30
68433;DHT22;55412;51.350;17.056;2023-07-20T07:47:11;23.70;56.70
68433;DHT22;55412;51.350;17.056;2023-07-20T07:49:37;23.60;56.70
68433;DHT22;55412;51.350;17.056;2023-07-20T07:52:04;24.00;56.40
68433;DHT22;55412;51.350;17.056;2023-07-20T07:54:30;24.30;55.40
68433;DHT22;55412;51.350;17.056;2023-07-20T07:56:56;24.50;54.90
68433;DHT22;55412;51.350;17.056;2023-07-20T07:59:23;24.70;54.60
68433;DHT22;55412;51.350;17.056;2023-07-20T08:01:49;24.50;55.20
68433;DHT22;55412;51.350;17.056;2023-07-20T08:04:15;24.30;55.90
68433;DHT22;55412;51.350;17.056;2023-07-20T08:06:41;24.10;56.20
68433;DHT22;55412;51.350;17.056;2023-07-20T08:09:07;23.90;56.20
68433;DHT22;55412;51.350;17.056;2023-07-20T08:11:34;23.60;56.90
68433;DHT22;55412;51.350;17.056;2023-07-20T08:14:00;23.50;57.30
68433;DHT22;55412;51.350;17.056;2023-07-20T08:16:27;23.40;57.70
68433;DHT22;55412;51.350;17.056;2023-07-20T08:18:53;23.40;58.40
68433;DHT22;55412;51.350;17.056;2023-07-20T08:21:19;23.50;57.60
68433;DHT22;55412;51.350;17.056;2023-07-20T08:23:46;23.40;57.00
68433;DHT22;55412;51.350;17.056;2023-07-20T08:26:15;23.20;56.50
68433;DHT22;55412;51.350;17.056;2023-07-20T08:31:10;22.80;58.40
68433;DHT22;55412;51.350;17.056;2023-07-20T08:33:36;22.60;59.50
68433;DHT22;55412;51.350;17.056;2023-07-20T08:36:02;22.60;59.70
68433;DHT22;55412;51.350;17.056;2023-07-20T08:38:29;22.70;59.50
68433;DHT22;55412;51.350;17.056;2023-07-20T08:40:55;22.80;59.30
68433;DHT22;55412;51.350;17.056;2023-07-20T08:43:23;22.90;59.10
68433;DHT22;55412;51.350;17.056;2023-07-20T08:45:50;22.80;58.70
68433;DHT22;55412;51.350;17.056;2023-07-20T08:48:18;22.70;59.00
68433;DHT22;55412;51.350;17.056;2023-07-20T08:50:47;22.70;59.40
68433;DHT22;55412;51.350;17.056;2023-07-20T08:53:14;22.70;59.30
68433;DHT22;55412;51.350;17.056;2023-07-20T08:55:44;22.70;58.20
68433;DHT22;55412;51.350;17.056;2023-07-20T08:58:12;22.70;56.90
68433;DHT22;55412;51.350;17.056;2023-07-20T09:00:41;22.60;57.40
68433;DHT22;55412;51.350;17.056;2023-07-20T09:03:08;22.60;57.60
68433;DHT22;55412;51.350;17.056;2023-07-20T09:05:35;22.60;57.80
68433;DHT22;55412;51.350;17.056;2023-07-20T09:08:02;22.60;57.90
68433;DHT22;55412;51.350;17.056;2023-07-20T09:10:30;22.70;57.80
68433;DHT22;55412;51.350;17.056;2023-07-20T09:12:56;22.80;56.40
68433;DHT22;55412;51.350;17.056;2023-07-20T09:15:23;22.90;56.80
68433;DHT22;55412;51.350;17.056;2023-07-20T09:17:50;23.00;56.10
68433;DHT22;55412;51.350;17.056;2023-07-20T09:20:20;23.00;55.80
68433;DHT22;55412;51.350;17.056;2023-07-20T09:22:46;23.00;55.50
68433;DHT22;55412;51.350;17.056;2023-07-20T09:25:13;23.00;54.10
68433;DHT22;55412;51.350;17.056;2023-07-20T09:27:43;23.10;54.40
68433;DHT22;55412;51.350;17.056;2023-07-20T09:30:11;23.30;54.90
68433;DHT22;55412;51.350;17.056;2023-07-20T09:32:44;23.20;55.60
68433;DHT22;55412;51.350;17.056;2023-07-20T09:35:19;23.30;55.50
68433;DHT22;55412;51.350;17.056;2023-07-20T09:37:51;23.40;54.80
68433;DHT22;55412;51.350;17.056;2023-07-20T09:40:20;23.40;54.60
68433;DHT22;55412;51.350;17.056;2023-07-20T09:42:47;23.50;53.80
68433;DHT22;55412;51.350;17.056;2023-07-20T09:45:14;23.60;52.80
68433;DHT22;55412;51.350;17.056;2023-07-20T09:47:40;23.70;52.20
68433;DHT22;55412;51.350;17.056;2023-07-20T09:50:07;23.60;53.30
68433;DHT22;55412;51.350;17.056;2023-07-20T09:52:41;23.60;52.80
68433;DHT22;55412;51.350;17.056;2023-07-20T09:55:10;23.60;53.20
68433;DHT22;55412;51.350;17.056;2023-07-20T09:57:39;23.60;53.30
68433;DHT22;55412;51.350;17.056;2023-07-20T10:00:07;23.50;53.00
68433;DHT22;55412;51.350;17.056;2023-07-20T10:02:43;23.50;52.90
68433;DHT22;55412;51.350;17.056;2023-07-20T10:05:15;23.50;52.80
68433;DHT22;55412;51.350;17.056;2023-07-20T10:07:47;23.60;52.70
68433;DHT22;55412;51.350;17.056;2023-07-20T10:10:18;23.70;50.50
68433;DHT22;55412;51.350;17.056;2023-07-20T10:12:47;23.60;49.90
68433;DHT22;55412;51.350;17.056;2023-07-20T10:20:30;23.50;52.60
68433;DHT22;55412;51.350;17.056;2023-07-20T10:22:58;23.60;50.50
68433;DHT22;55412;51.350;17.056;2023-07-20T10:25:26;23.70;50.10
68433;DHT22;55412;51.350;17.056;2023-07-20T10:27:57;23.80;49.60
68433;DHT22;55412;51.350;17.056;2023-07-20T10:30:25;23.70;50.80
68433;DHT22;55412;51.350;17.056;2023-07-20T10:32:52;23.80;51.00
68433;DHT22;55412;51.350;17.056;2023-07-20T10:35:18;23.80;50.60
68433;DHT22;55412;51.350;17.056;2023-07-20T10:38:11;23.80;50.80
68433;DHT22;55412;51.350;17.056;2023-07-20T10:40:41;23.80;50.90
68433;DHT22;55412;51.350;17.056;2023-07-20T10:43:09;23.90;50.90
68433;DHT22;55412;51.350;17.056;2023-07-20T10:45:41;24.00;51.00
68433;DHT22;55412;51.350;17.056;2023-07-20T10:48:16;24.00;50.30
68433;DHT22;55412;51.350;17.056;2023-07-20T10:50:46;23.90;51.00
68433;DHT22;55412;51.350;17.056;2023-07-20T10:53:32;23.90;49.60
68433;DHT22;55412;51.350;17.056;2023-07-20T10:56:20;23.90;48.20
68433;DHT22;55412;51.350;17.056;2023-07-20T10:58:58;23.90;49.50
68433;DHT22;55412;51.350;17.056;2023-07-20T11:01:35;23.70;50.20
68433;DHT22;55412;51.350;17.056;2023-07-20T11:04:08;23.60;50.60
68433;DHT22;55412;51.350;17.056;2023-07-20T11:06:35;23.50;50.70
68433;DHT22;55412;51.350;17.056;2023-07-20T11:09:10;23.40;50.70
68433;DHT22;55412;51.350;17.056;2023-07-20T11:11:47;23.40;48.70
68433;DHT22;55412;51.350;17.056;2023-07-20T11:14:22;23.30;50.80
68433;DHT22;55412;51.350;17.056;2023-07-20T11:16:50;23.30;50.60
68433;DHT22;55412;51.350;17.056;2023-07-20T11:19:20;23.30;50.60
68433;DHT22;55412;51.350;17.056;2023-07-20T11:21:53;23.20;50.80
68433;DHT22;55412;51.350;17.056;2023-07-20T11:24:20;23.20;50.90
68433;DHT22;55412;51.350;17.056;2023-07-20T11:26:52;23.10;51.00
68433;DHT22;55412;51.350;17.056;2023-07-20T11:29:22;23.10;50.90
68433;DHT22;55412;51.350;17.056;2023-07-20T11:31:51;23.10;51.20
68433;DHT22;55412;51.350;17.056;2023-07-20T11:34:18;23.30;50.70
68433;DHT22;55412;51.350;17.056;2023-07-20T11:36:48;23.40;51.60
68433;DHT22;55412;51.350;17.056;2023-07-20T11:39:17;23.50;51.10
68433;DHT22;55412;51.350;17.056;2023-07-20T11:41:55;23.80;51.50
68433;DHT22;55412;51.350;17.056;2023-07-20T11:44:24;23.90;50.60
68433;DHT22;55412;51.350;17.056;2023-07-20T11:47:11;24.00;50.20
68433;DHT22;55412;51.350;17.056;2023-07-20T11:49:43;24.20;51.20
68433;DHT22;55412;51.350;17.056;2023-07-20T11:52:16;24.40;49.60
68433;DHT22;55412;51.350;17.056;2023-07-20T11:54:43;24.50;50.20
68433;DHT22;55412;51.350;17.056;2023-07-20T11:57:19;24.60;49.10
68433;DHT22;55412;51.350;17.056;2023-07-20T12:00:02;24.70;48.70
68433;DHT22;55412;51.350;17.056;2023-07-20T12:02:34;24.60;49.30
68433;DHT22;55412;51.350;17.056;2023-07-20T12:05:02;24.50;49.90
68433;DHT22;55412;51.350;17.056;2023-07-20T12:07:35;24.50;49.70
68433;DHT22;55412;51.350;17.056;2023-07-20T12:10:10;24.50;50.70
68433;DHT22;55412;51.350;17.056;2023-07-20T12:12:44;24.60;50.30
68433;DHT22;55412;51.350;17.056;2023-07-20T12:15:14;24.70;50.50
68433;DHT22;55412;51.350;17.056;2023-07-20T12:17:56;24.60;49.90
68433;DHT22;55412;51.350;17.056;2023-07-20T12:23:15;24.00;49.90
68433;DHT22;55412;51.350;17.056;2023-07-20T12:25:44;23.90;49.50
68433;DHT22;55412;51.350;17.056;2023-07-20T12:28:15;23.90;49.70
68433;DHT22;55412;51.350;17.056;2023-07-20T12:30:44;23.90;49.70
68433;DHT22;55412;51.350;17.056;2023-07-20T12:33:11;23.90;49.40
68433;DHT22;55412;51.350;17.056;2023-07-20T12:35:39;24.20;49.00
68433;DHT22;55412;51.350;17.056;2023-07-20T12:38:06;24.30;49.00
68433;DHT22;55412;51.350;17.056;2023-07-20T12:40:32;24.30;49.60
68433;DHT22;55412;51.350;17.056;2023-07-20T12:42:59;24.40;48.90
68433;DHT22;55412;51.350;17.056;2023-07-20T12:45:25;24.50;50.50
68433;DHT22;55412;51.350;17.056;2023-07-20T12:47:51;24.60;49.80
68433;DHT22;55412;51.350;17.056;2023-07-20T12:50:18;24.50;50.30
68433;DHT22;55412;51.350;17.056;2023-07-20T12:52:44;24.40;48.20
68433;DHT22;55412;51.350;17.056;2023-07-20T12:55:10;24.20;48.50
68433;DHT22;55412;51.350;17.056;2023-07-20T12:57:37;24.10;48.10
68433;DHT22;55412;51.350;17.056;2023-07-20T13:00:05;24.10;48.90
68433;DHT22;55412;51.350;17.056;2023-07-20T13:02:35;24.20;49.60
68433;DHT22;55412;51.350;17.056;2023-07-20T13:05:02;24.20;49.40
68433;DHT22;55412;51.350;17.056;2023-07-20T13:07:31;24.20;49.40
68433;DHT22;55412;51.350;17.056;2023-07-20T13:10:02;24.30;49.40
68433;DHT22;55412;51.350;17.056;2023-07-20T13:12:32;24.20;49.30
68433;DHT22;55412;51.350;17.056;2023-07-20T13:15:00;24.20;49.20
68433;DHT22;55412;51.350;17.056;2023-07-20T13:17:28;24.20;48.30
68433;DHT22;55412;51.350;17.056;2023-07-20T13:19:54;24.30;47.70
68433;DHT22;55412;51.350;17.056;2023-07-20T13:22:21;24.30;48.00
68433;DHT22;55412;51.350;17.056;2023-07-20T13:24:47;24.40;49.00
68433;DHT22;55412;51.350;17.056;2023-07-20T13:27:17;24.20;49.20
68433;DHT22;55412;51.350;17.056;2023-07-20T13:29:44;24.10;48.50
68433;DHT22;55412;51.350;17.056;2023-07-20T13:32:15;24.10;49.00
68433;DHT22;55412;51.350;17.056;2023-07-20T13:34:46;24.10;49.40
68433;DHT22;55412;51.350;17.056;2023-07-20T13:37:16;23.90;49.10
68433;DHT22;55412;51.350;17.056;2023-07-20T13:39:47;23.90;49.60
68433;DHT22;55412;51.350;17.056;2023-07-20T13:42:13;24.00;49.90
68433;DHT22;55412;51.350;17.056;2023-07-20T13:44:40;24.00;49.90
68433;DHT22;55412;51.350;17.056;2023-07-20T13:47:06;23.90;49.90
68433;DHT22;55412;51.350;17.056;2023-07-20T13:49:33;23.90;50.00
68433;DHT22;55412;51.350;17.056;2023-07-20T13:51:59;23.80;49.70
68433;DHT22;55412;51.350;17.056;2023-07-20T13:54:25;23.80;51.10
68433;DHT22;55412;51.350;17.056;2023-07-20T13:56:52;24.10;49.30
68433;DHT22;55412;51.350;17.056;2023-07-20T13:59:18;24.20;48.60
68433;DHT22;55412;51.350;17.056;2023-07-20T14:01:44;24.30;48.90
68433;DHT22;55412;51.350;17.056;2023-07-20T14:04:10;24.40;48.10
68433;DHT22;55412;51.350;17.056;2023-07-20T14:06:37;24.50;47.00
68433;DHT22;55412;51.350;17.056;2023-07-20T14:09:03;24.60;47.80
68433;DHT22;55412;51.350;17.056;2023-07-20T14:11:30;24.50;47.40
68433;DHT22;55412;51.350;17.056;2023-07-20T14:13:56;24.50;47.90
68433;DHT22;55412;51.350;17.056;2023-07-20T14:16:24;24.50;48.50
68433;DHT22;55412;51.350;17.056;2023-07-20T14:18:51;24.30;48.30
68433;DHT22;55412;51.350;17.056;2023-07-20T14:21:19;24.20;48.10
68433;DHT22;55412;51.350;17.056;2023-07-20T14:23:47;24.10;48.00
68433;DHT22;55412;51.350;17.056;2023-07-20T14:26:18;24.00;48.20
68433;DHT22;55412;51.350;17.056;2023-07-20T14:28:45;23.90;48.30
68433;DHT22;55412;51.350;17.056;2023-07-20T14:31:11;23.90;48.90
68433;DHT22;55412;51.350;17.056;2023-07-20T14:33:37;23.90;49.70
68433;DHT22;55412;51.350;17.056;2023-07-20T14:36:03;24.00;49.90
68433;DHT22;55412;51.350;17.056;2023-07-20T14:38:31;24.00;48.90
68433;DHT22;55412;51.350;17.056;2023-07-20T14:40:58;24.10;49.10
68433;DHT22;55412;51.350;17.056;2023-07-20T14:43:25;24.10;49.00
68433;DHT22;55412;51.350;17.056;2023-07-20T14:45:51;24.20;46.80
68433;DHT22;55412;51.350;17.056;2023-07-20T14:48:17;24.20;46.10
68433;DHT22;55412;51.350;17.056;2023-07-20T14:50:44;24.20;47.30
68433;DHT22;55412;51.350;17.056;2023-07-20T14:53:13;24.10;46.60
68433;DHT22;55412;51.350;17.056;2023-07-20T14:55:40;24.10;46.40
68433;DHT22;55412;51.350;17.056;2023-07-20T14:58:07;24.10;46.00
68433;DHT22;55412;51.350;17.056;2023-07-20T15:00:34;24.10;44.30
68433;DHT22;55412;51.350;17.056;2023-07-20T15:03:00;24.10;44.10
68433;DHT22;55412;51.350;17.056;2023-07-20T15:05:26;24.10;44.20
68433;DHT22;55412;51.350;17.056;2023-07-20T15:07:53;24.10;44.50
68433;DHT22;55412;51.350;17.056;2023-07-20T15:10:20;24.10;45.40
68433;DHT22;55412;51.350;17.056;2023-07-20T15:12:46;24.00;45.70
68433;DHT22;55412;51.350;17.056;2023-07-20T15:15:13;23.90;46.20
68433;DHT22;55412;51.350;17.056;2023-07-20T15:17:43;23.80;45.90
68433;DHT22;55412;51.350;17.056;2023-07-20T15:20:12;23.90;45.40
68433;DHT22;55412;51.350;17.056;2023-07-20T15:22:39;23.90;44.40
68433;DHT22;55412;51.350;17.056;2023-07-20T15:25:06;24.00;45.10
68433;DHT22;55412;51.350;17.056;2023-07-20T15:27:34;24.00;43.10
68433;DHT22;55412;51.350;17.056;2023-07-20T15:30:00;24.00;43.80
68433;DHT22;55412;51.350;17.056;2023-07-20T15:32:27;24.00;44.00
68433;DHT22;55412;51.350;17.056;2023-07-20T15:34:53;24.00;44.40
68433;DHT22;55412;51.350;17.056;2023-07-20T15:37:20;23.90;43.80
68433;DHT22;55412;51.350;17.056;2023-07-20T15:39:49;23.90;44.10
68433;DHT22;55412;51.350;17.056;2023-07-20T15:42:16;23.80;44.40
68433;DHT22;55412;51.350;17.056;2023-07-20T15:44:51;23.80;45.00